createdAt,value
2022-11-07T00:02:22.549Z,99720.78
2022-11-07T00:05:10.982Z,99734.47
2022-11-07T00:07:59.383Z,99732.78
2022-11-07T00:10:47.703Z,99730.13
2022-11-07T00:13:36.080Z,99727.53
2022-11-07T00:16:26.527Z,99728.38
2022-11-07T00:19:20.238Z,99723.25
2022-11-07T00:22:08.635Z,99734.28
2022-11-07T00:24:57.025Z,99730.72
2022-11-07T00:27:45.465Z,99735.13
2022-11-07T00:30:33.830Z,99732.53
2022-11-07T00:33:22.202Z,99733.38
2022-11-07T00:36:19.502Z,99732.47
2022-11-07T00:39:07.947Z,99740.22
2022-11-07T00:41:56.324Z,99740.22
2022-11-07T00:44:44.669Z,99733.38
2022-11-07T00:47:33.034Z,99738.47
2022-11-07T00:50:21.592Z,99736.06
2022-11-07T00:53:11.442Z,99743.41
2022-11-07T00:56:02.755Z,99754.44
2022-11-07T00:58:54.795Z,99749.19
2022-11-07T01:01:43.269Z,99750.03
2022-11-07T01:04:49.452Z,99751.53
2022-11-07T01:07:37.967Z,99757.47
2022-11-07T01:10:27.715Z,99754.94
2022-11-07T01:13:16.534Z,99756.72
2022-11-07T01:16:05.957Z,99761.78
2022-11-07T01:18:54.370Z,99772.06
2022-11-07T01:21:42.980Z,99768.63
2022-11-07T01:24:31.357Z,99771.22
2022-11-07T01:27:21.082Z,99764.22
2022-11-07T01:30:11.135Z,99765.00
2022-11-07T01:33:00.098Z,99762.41
2022-11-07T01:35:48.468Z,99764.06
2022-11-07T01:38:36.961Z,99766.56
2022-11-07T01:41:29.418Z,99773.34
2022-11-07T01:44:54.819Z,99757.97
2022-11-07T01:47:43.196Z,99761.31
2022-11-07T01:50:31.581Z,99753.53
2022-11-07T01:53:19.921Z,99757.06
2022-11-07T01:56:12.986Z,99759.66
2022-11-07T01:59:01.350Z,99760.41
2022-11-07T02:01:51.344Z,99762.81
2022-11-07T02:04:39.789Z,99766.34
2022-11-07T02:07:28.142Z,99766.34
2022-11-07T02:10:16.609Z,99755.06
2022-11-07T02:13:05.026Z,99758.41
2022-11-07T02:15:53.450Z,99768.75
2022-11-07T02:18:43.402Z,99766.16
2022-11-07T02:21:37.883Z,99760.09
2022-11-07T02:24:29.455Z,99761.75
2022-11-07T02:27:19.413Z,99765.09
2022-11-07T02:30:10.524Z,99768.44
2022-11-07T02:32:58.916Z,99763.19
2022-11-07T02:35:48.269Z,99761.44
2022-11-07T02:38:37.521Z,99753.50
2022-11-07T02:41:28.796Z,99748.59
2022-11-07T02:44:17.253Z,99745.16
2022-11-07T02:47:05.718Z,99747.81
2022-11-07T02:49:54.120Z,99740.91
2022-11-07T02:52:42.648Z,99747.06
2022-11-07T02:55:31.075Z,99743.66
2022-11-07T02:58:20.812Z,99742.91
2022-11-07T03:01:12.234Z,99743.06
2022-11-07T03:04:00.810Z,99742.38
2022-11-07T03:06:49.205Z,99751.06
2022-11-07T03:09:37.558Z,99750.19
2022-11-07T03:12:25.978Z,99750.97
2022-11-07T03:15:15.717Z,99751.59
2022-11-07T03:18:04.290Z,99756.59
2022-11-07T03:20:52.658Z,99758.16
2022-11-07T03:23:41.023Z,99757.16
2022-11-07T03:26:29.773Z,99754.44
2022-11-07T03:29:18.217Z,99758.63
2022-11-07T03:32:08.241Z,99752.28
2022-11-07T03:34:56.641Z,99759.88
2022-11-07T03:37:47.386Z,99765.72
2022-11-07T03:40:35.761Z,99768.06
2022-11-07T03:43:24.164Z,99759.22
2022-11-07T03:46:12.631Z,99759.84
2022-11-07T03:49:02.513Z,99750.97
2022-11-07T03:51:50.874Z,99766.16
2022-11-07T03:54:39.258Z,99774.63
2022-11-07T03:57:27.610Z,99780.44
2022-11-07T04:00:17.457Z,99782.22
2022-11-07T04:03:05.932Z,99781.13
2022-11-07T04:05:55.653Z,99779.47
2022-11-07T04:08:44.048Z,99782.88
2022-11-07T04:11:50.103Z,99793.25
2022-11-07T04:14:55.958Z,99791.56
2022-11-07T04:17:44.322Z,99794.13
2022-11-07T04:20:32.820Z,99801.91
2022-11-07T04:23:22.542Z,99796.66
2022-11-07T04:26:28.539Z,99791.41
2022-11-07T04:29:16.899Z,99803.41
2022-11-07T04:32:05.875Z,99787.00
2022-11-07T04:34:54.249Z,99805.00
2022-11-07T04:37:42.764Z,99800.50
2022-11-07T04:40:32.505Z,99807.34
2022-11-07T04:43:20.917Z,99809.94
2022-11-07T04:46:09.310Z,99803.84
2022-11-07T04:48:57.724Z,99809.03
2022-11-07T04:51:46.190Z,99816.63
2022-11-07T04:54:35.657Z,99803.59
2022-11-07T04:57:25.474Z,99806.13
2022-11-07T05:00:15.532Z,99810.44
2022-11-07T05:03:04.155Z,99802.66
2022-11-07T05:05:52.632Z,99797.34
2022-11-07T05:08:41.019Z,99796.59
2022-11-07T05:11:29.479Z,99796.59
2022-11-07T05:14:19.295Z,99788.00
2022-11-07T05:17:07.690Z,99788.91
2022-11-07T05:19:56.138Z,99788.06
2022-11-07T05:23:02.335Z,99797.59
2022-11-07T05:25:52.111Z,99789.91
2022-11-07T05:28:41.040Z,99805.44
2022-11-07T05:31:30.824Z,99815.03
2022-11-07T05:34:19.214Z,99808.09
2022-11-07T05:37:09.357Z,99801.91
2022-11-07T05:39:57.768Z,99802.78
2022-11-07T05:42:46.193Z,99805.19
2022-11-07T05:45:37.505Z,99795.75
2022-11-07T05:48:27.256Z,99795.59
2022-11-07T05:51:15.666Z,99796.41
2022-11-07T05:54:04.134Z,99802.41
2022-11-07T05:56:56.492Z,99794.66
2022-11-07T05:59:44.863Z,99798.09
2022-11-07T06:02:33.382Z,99796.25
2022-11-07T06:05:24.445Z,99796.41
2022-11-07T06:08:14.312Z,99809.00
2022-11-07T06:11:05.537Z,99804.63
2022-11-07T06:13:54.625Z,99807.97
2022-11-07T06:16:43.054Z,99806.97
2022-11-07T06:19:31.493Z,99810.38
2022-11-07T06:22:21.358Z,99821.56
2022-11-07T06:25:10.444Z,99809.56
2022-11-07T06:28:00.516Z,99819.59
2022-11-07T06:30:49.193Z,99822.56
2022-11-07T06:33:37.582Z,99824.19
2022-11-07T06:36:25.979Z,99820.66
2022-11-07T06:39:16.211Z,99827.59
2022-11-07T06:42:04.976Z,99828.50
2022-11-07T06:44:53.421Z,99826.03
2022-11-07T06:47:41.813Z,99825.16
2022-11-07T06:50:30.336Z,99825.16
2022-11-07T06:53:19.204Z,99837.16
2022-11-07T06:56:16.833Z,99836.28
2022-11-07T06:59:05.218Z,99835.38
2022-11-07T07:01:53.667Z,99834.44
2022-11-07T07:04:21.843Z,99839.47
2022-11-07T07:06:49.939Z,99840.19
2022-11-07T07:09:18.059Z,99840.19
2022-11-07T07:11:48.221Z,99849.66
2022-11-07T07:14:16.364Z,99846.13
2022-11-07T07:16:44.471Z,99852.06
2022-11-07T07:19:13.194Z,99857.25
2022-11-07T07:21:41.380Z,99857.25
2022-11-07T07:24:09.960Z,99855.41
2022-11-07T07:26:38.134Z,99866.38
2022-11-07T07:29:07.627Z,99868.63
2022-11-07T07:31:35.738Z,99875.31
2022-11-07T07:34:03.836Z,99876.81
2022-11-07T07:36:32.999Z,99877.56
2022-11-07T07:39:01.602Z,99874.63
2022-11-07T07:41:30.533Z,99872.78
2022-11-07T07:43:59.331Z,99882.66
2022-11-07T07:46:29.432Z,99882.06
2022-11-07T07:48:58.218Z,99881.09
2022-11-07T07:51:27.061Z,99869.72
2022-11-07T07:53:56.534Z,99872.31
2022-11-07T07:56:25.392Z,99873.06
2022-11-07T07:58:54.920Z,99881.59
2022-11-07T08:01:24.460Z,99892.78
2022-11-07T08:04:02.077Z,99887.69
2022-11-07T08:06:32.541Z,99883.00
2022-11-07T08:09:01.676Z,99883.06
2022-11-07T08:11:33.769Z,99887.13
2022-11-07T08:14:03.366Z,99875.94
2022-11-07T08:16:32.804Z,99875.75
2022-11-07T08:19:03.637Z,99877.25
2022-11-07T08:21:32.918Z,99891.34
2022-11-07T08:24:03.635Z,99889.75
2022-11-07T08:26:32.949Z,99888.19
2022-11-07T08:29:02.788Z,99884.09
2022-11-07T08:31:32.067Z,99878.16
2022-11-07T08:34:01.875Z,99889.22
2022-11-07T08:36:30.253Z,99892.72
2022-11-07T08:38:58.784Z,99891.06
2022-11-07T08:41:27.041Z,99887.72
2022-11-07T08:43:55.280Z,99880.69
2022-11-07T08:46:23.509Z,99871.78
2022-11-07T08:48:51.695Z,99891.44
2022-11-07T08:51:21.226Z,99889.31
2022-11-07T08:53:49.441Z,99897.75
2022-11-07T08:56:17.593Z,99902.03
2022-11-07T08:58:45.676Z,99894.31
2022-11-07T09:01:13.951Z,99897.94
2022-11-07T09:03:56.555Z,99888.47
2022-11-07T09:06:27.615Z,99899.94
2022-11-07T09:08:55.797Z,99902.94
2022-11-07T09:11:24.237Z,99891.91
2022-11-07T09:13:52.937Z,99900.34
2022-11-07T09:16:21.403Z,99905.34
2022-11-07T09:18:50.301Z,99917.50
2022-11-07T09:21:22.355Z,99918.53
2022-11-07T09:23:52.100Z,99921.28
2022-11-07T09:26:20.242Z,99911.91
2022-11-07T09:28:52.897Z,99918.06
2022-11-07T09:31:23.326Z,99909.44
2022-11-07T09:33:51.478Z,99904.25
2022-11-07T09:36:19.601Z,99910.25
2022-11-07T09:38:47.702Z,99913.59
2022-11-07T09:41:28.215Z,99911.00
2022-11-07T09:44:09.215Z,99917.94
2022-11-07T09:46:49.744Z,99910.25
2022-11-07T09:49:19.637Z,99920.72
2022-11-07T09:51:51.371Z,99917.31
2022-11-07T09:54:21.606Z,99924.16
2022-11-07T09:56:51.440Z,99927.75
2022-11-07T09:59:24.212Z,99940.19
2022-11-07T10:01:52.444Z,99920.59
2022-11-07T10:04:25.443Z,99930.91
2022-11-07T10:06:57.397Z,99927.97
2022-11-07T10:09:31.749Z,99926.09
2022-11-07T10:12:07.952Z,99936.31
2022-11-07T10:14:42.795Z,99939.66
2022-11-07T10:17:17.040Z,99941.06
2022-11-07T10:20:01.492Z,99938.34
2022-11-07T10:22:47.578Z,99944.38
2022-11-07T10:25:22.385Z,99949.41
2022-11-07T10:27:59.689Z,99944.00
2022-11-07T10:30:27.858Z,99933.00
2022-11-07T10:33:01.847Z,99942.66
2022-11-07T10:35:31.247Z,99938.84
2022-11-07T10:38:01.173Z,99935.03
2022-11-07T10:40:34.249Z,99932.53
2022-11-07T10:43:04.320Z,99942.03
2022-11-07T10:45:32.514Z,99935.34
2022-11-07T10:48:02.794Z,99943.16
2022-11-07T10:50:31.636Z,99951.41
2022-11-07T10:53:00.738Z,99939.44
2022-11-07T10:55:29.489Z,99939.56
2022-11-07T10:58:00.557Z,99928.50
2022-11-07T11:00:32.867Z,99925.00
2022-11-07T11:03:01.220Z,99936.75
2022-11-07T11:05:34.093Z,99935.63
2022-11-07T11:08:14.130Z,99922.72
2022-11-07T11:10:42.480Z,99928.47
2022-11-07T11:13:26.885Z,99936.09
2022-11-07T11:16:00.021Z,99924.22
2022-11-07T11:18:30.847Z,99921.59
2022-11-07T11:21:01.442Z,99920.03
2022-11-07T11:23:31.602Z,99911.13
2022-11-07T11:26:01.111Z,99913.59
2022-11-07T11:28:33.113Z,99913.59
2022-11-07T11:31:06.247Z,99905.91
2022-11-07T11:33:38.686Z,99915.56
2022-11-07T11:36:11.984Z,99911.13
2022-11-07T11:38:40.103Z,99905.72
2022-11-07T11:41:15.066Z,99902.38
2022-11-07T11:43:46.537Z,99899.84
2022-11-07T11:46:22.952Z,99890.53
2022-11-07T11:48:54.102Z,99888.28
2022-11-07T11:51:33.356Z,99882.66
2022-11-07T11:54:01.471Z,99879.78
2022-11-07T11:56:43.038Z,99884.13
2022-11-07T12:00:03.394Z,99883.75
2022-11-07T12:02:55.573Z,99874.81
2022-11-07T12:06:06.649Z,99877.56
2022-11-07T12:09:22.003Z,99882.16
2022-11-07T12:12:00.177Z,99869.09
2022-11-07T12:15:02.113Z,99867.94
2022-11-07T12:17:36.339Z,99868.84
2022-11-07T12:20:14.997Z,99859.44
2022-11-07T12:22:51.717Z,99857.69
2022-11-07T12:25:24.599Z,99854.06
2022-11-07T12:27:57.333Z,99854.41
2022-11-07T12:30:30.035Z,99875.50
2022-11-07T12:33:07.921Z,99858.50
2022-11-07T12:35:44.296Z,99860.34
2022-11-07T12:38:36.014Z,99867.44
2022-11-07T12:41:08.323Z,99866.03
2022-11-07T12:43:47.706Z,99865.56
2022-11-07T12:46:20.791Z,99864.53
2022-11-07T12:49:23.412Z,99864.94
2022-11-07T12:51:56.853Z,99862.88
2022-11-07T12:54:46.139Z,99854.22
2022-11-07T12:57:18.031Z,99844.25
2022-11-07T12:59:50.647Z,99858.00
2022-11-07T13:02:44.270Z,99852.25
2022-11-07T13:05:38.867Z,99848.19
2022-11-07T13:08:11.676Z,99841.31
2022-11-07T13:10:47.204Z,99836.13
2022-11-07T13:13:19.633Z,99839.69
2022-11-07T13:16:14.024Z,99838.81
2022-11-07T13:18:36.308Z,99846.97
2022-11-07T13:21:06.025Z,99843.63
2022-11-07T13:23:35.705Z,99854.16
2022-11-07T13:26:20.311Z,99852.91
2022-11-07T13:28:58.181Z,99855.00
2022-11-07T13:31:37.088Z,99858.88
2022-11-07T13:34:13.290Z,99859.19
2022-11-07T13:36:41.526Z,99853.13
2022-11-07T13:39:11.316Z,99862.81
2022-11-07T13:41:39.464Z,99863.84
2022-11-07T13:44:08.895Z,99854.47
2022-11-07T13:46:40.083Z,99853.75
2022-11-07T13:49:12.624Z,99853.88
2022-11-07T13:51:42.538Z,99854.56
2022-11-07T13:54:18.196Z,99854.69
2022-11-07T13:56:50.512Z,99861.78
2022-11-07T13:59:32.576Z,99859.28
2022-11-07T14:02:04.692Z,99854.16
2022-11-07T14:04:40.532Z,99860.31
2022-11-07T14:07:25.865Z,99857.06
2022-11-07T14:09:58.474Z,99852.00
2022-11-07T14:12:27.167Z,99848.66
2022-11-07T14:14:57.970Z,99852.19
2022-11-07T14:17:34.089Z,99859.25
2022-11-07T14:20:16.517Z,99856.97
2022-11-07T14:22:53.074Z,99842.19
2022-11-07T14:25:29.297Z,99837.91
2022-11-07T14:27:57.686Z,99850.28
2022-11-07T14:30:26.740Z,99859.88
2022-11-07T14:32:56.070Z,99856.34
2022-11-07T14:35:25.796Z,99855.41
2022-11-07T14:37:53.999Z,99859.88
2022-11-07T14:40:22.297Z,99859.78
2022-11-07T14:42:52.105Z,99857.28
2022-11-07T14:45:46.736Z,99853.09
2022-11-07T14:48:11.419Z,99857.50
2022-11-07T14:50:39.718Z,99856.75
2022-11-07T14:53:09.866Z,99852.50
2022-11-07T14:55:38.702Z,99851.53
2022-11-07T14:58:08.572Z,99863.59
2022-11-07T15:00:36.778Z,99854.16
2022-11-07T15:03:05.099Z,99862.78
2022-11-07T15:05:45.040Z,99862.78
2022-11-07T15:08:27.215Z,99855.28
2022-11-07T15:11:02.514Z,99863.00
2022-11-07T15:13:34.005Z,99862.19
2022-11-07T15:16:04.826Z,99862.19
2022-11-07T15:18:35.185Z,99860.50
2022-11-07T15:21:03.530Z,99861.31
2022-11-07T15:23:33.076Z,99866.53
2022-11-07T15:26:10.202Z,99863.09
2022-11-07T15:28:47.756Z,99861.59
2022-11-07T15:31:21.540Z,99855.66
2022-11-07T15:33:49.841Z,99865.31
2022-11-07T15:36:18.042Z,99864.63
2022-11-07T15:38:46.304Z,99866.28
2022-11-07T15:41:14.406Z,99862.94
2022-11-07T15:43:42.509Z,99868.03
2022-11-07T15:46:23.543Z,99864.63
2022-11-07T15:48:51.654Z,99864.63
2022-11-07T15:51:19.762Z,99868.53
2022-11-07T15:53:47.928Z,99870.41
2022-11-07T15:56:17.371Z,99872.25
2022-11-07T15:58:45.561Z,99873.94
2022-11-07T16:01:13.905Z,99871.44
2022-11-07T16:03:43.483Z,99879.34
2022-11-07T16:06:18.405Z,99874.34
2022-11-07T16:08:46.521Z,99871.84
2022-11-07T16:11:14.546Z,99873.59
2022-11-07T16:13:42.899Z,99871.94
2022-11-07T16:16:15.631Z,99873.81
2022-11-07T16:18:45.786Z,99874.72
2022-11-07T16:21:13.952Z,99866.09
2022-11-07T16:23:44.455Z,99867.13
2022-11-07T16:26:12.776Z,99856.94
2022-11-07T16:28:40.948Z,99862.16
2022-11-07T16:31:09.069Z,99864.09
2022-11-07T16:33:37.181Z,99856.59
2022-11-07T16:36:15.622Z,99863.66
2022-11-07T16:38:43.738Z,99864.91
2022-11-07T16:41:14.847Z,99867.81
2022-11-07T16:43:43.038Z,99866.13
2022-11-07T16:46:15.209Z,99875.88
2022-11-07T16:48:43.390Z,99878.75
2022-11-07T16:51:15.678Z,99877.31
2022-11-07T16:53:43.868Z,99874.78
2022-11-07T16:56:24.301Z,99879.34
2022-11-07T16:58:52.900Z,99869.97
2022-11-07T17:01:21.211Z,99867.66
2022-11-07T17:03:49.359Z,99871.22
2022-11-07T17:06:20.920Z,99876.56
2022-11-07T17:08:49.201Z,99876.78
2022-11-07T17:11:17.958Z,99872.63
2022-11-07T17:13:46.116Z,99867.59
2022-11-07T17:16:17.411Z,99861.78
2022-11-07T17:18:46.963Z,99867.78
2022-11-07T17:21:26.165Z,99865.44
2022-11-07T17:23:54.885Z,99858.56
2022-11-07T17:26:24.544Z,99870.66
2022-11-07T17:28:52.770Z,99860.41
2022-11-07T17:31:21.300Z,99870.72
2022-11-07T17:33:49.556Z,99863.75
2022-11-07T17:36:38.411Z,99875.84
2022-11-07T17:39:11.045Z,99872.28
2022-11-07T17:41:39.394Z,99876.50
2022-11-07T17:44:07.754Z,99879.00
2022-11-07T17:46:36.420Z,99876.31
2022-11-07T17:49:06.695Z,99875.31
2022-11-07T17:51:35.745Z,99876.13
2022-11-07T17:54:05.677Z,99877.91
2022-11-07T17:56:34.430Z,99880.50
2022-11-07T17:59:04.119Z,99872.78
2022-11-07T18:01:33.592Z,99871.75
2022-11-07T18:04:01.918Z,99874.34
2022-11-07T18:06:30.034Z,99875.09
2022-11-07T18:09:00.065Z,99880.28
2022-11-07T18:11:31.523Z,99876.78
2022-11-07T18:14:00.655Z,99871.50
2022-11-07T18:16:30.889Z,99876.56
2022-11-07T18:18:59.422Z,99874.09
2022-11-07T18:21:27.670Z,99877.59
2022-11-07T18:23:55.958Z,99878.63
2022-11-07T18:26:26.591Z,99874.34
2022-11-07T18:28:56.414Z,99882.25
2022-11-07T18:31:24.920Z,99872.16
2022-11-07T18:33:57.627Z,99877.34
2022-11-07T18:36:26.143Z,99871.47
2022-11-07T18:38:54.314Z,99872.50
2022-11-07T18:41:23.737Z,99863.44
2022-11-07T18:43:53.730Z,99863.22
2022-11-07T18:46:23.150Z,99867.88
2022-11-07T18:48:51.659Z,99867.13
2022-11-07T18:51:21.423Z,99871.66
2022-11-07T18:53:49.829Z,99875.22
2022-11-07T18:56:18.231Z,99866.69
2022-11-07T18:58:46.420Z,99871.97
2022-11-07T19:01:16.221Z,99866.97
2022-11-07T19:03:46.773Z,99868.81
2022-11-07T19:06:17.829Z,99867.31
2022-11-07T19:08:48.380Z,99866.59
2022-11-07T19:11:19.758Z,99862.59
2022-11-07T19:13:51.472Z,99867.06
2022-11-07T19:16:20.960Z,99861.19
2022-11-07T19:18:50.826Z,99875.88
2022-11-07T19:21:20.302Z,99874.00
2022-11-07T19:23:48.818Z,99882.63
2022-11-07T19:26:18.941Z,99884.38
2022-11-07T19:28:47.156Z,99877.59
2022-11-07T19:31:15.534Z,99879.56
2022-11-07T19:33:44.038Z,99873.56
2022-11-07T19:36:16.383Z,99873.56
2022-11-07T19:38:44.571Z,99878.63
2022-11-07T19:41:13.397Z,99872.53
2022-11-07T19:43:42.490Z,99872.69
2022-11-07T19:46:12.137Z,99866.13
2022-11-07T19:48:40.264Z,99870.50
2022-11-07T19:51:08.773Z,99875.69
2022-11-07T19:53:38.226Z,99857.69
2022-11-07T19:56:08.576Z,99864.63
2022-11-07T19:58:37.081Z,99861.38
2022-11-07T20:01:30.006Z,99859.81
2022-11-07T20:03:58.328Z,99867.66
2022-11-07T20:06:30.312Z,99869.34
2022-11-07T20:09:00.569Z,99876.41
2022-11-07T20:11:28.814Z,99881.94
2022-11-07T20:14:02.799Z,99884.81
2022-11-07T20:16:31.774Z,99883.69
2022-11-07T20:18:59.910Z,99886.72
2022-11-07T20:21:29.162Z,99880.22
2022-11-07T20:23:59.431Z,99879.72
2022-11-07T20:26:29.514Z,99875.88
2022-11-07T20:28:57.815Z,99879.00
2022-11-07T20:31:27.469Z,99877.50
2022-11-07T20:33:57.777Z,99878.78
2022-11-07T20:36:26.125Z,99885.31
2022-11-07T20:38:55.234Z,99884.25
2022-11-07T20:41:24.851Z,99883.56
2022-11-07T20:43:55.072Z,99892.28
2022-11-07T20:46:23.189Z,99892.34
2022-11-07T20:48:51.400Z,99889.00
2022-11-07T20:51:23.473Z,99888.19
2022-11-07T20:53:51.607Z,99895.47
2022-11-07T20:56:20.103Z,99894.69
2022-11-07T20:58:49.643Z,99906.72
2022-11-07T21:01:19.625Z,99897.88
2022-11-07T21:04:08.784Z,99888.84
2022-11-07T21:06:57.280Z,99903.22
2022-11-07T21:09:45.655Z,99899.34
2022-11-07T21:12:34.547Z,99901.34
2022-11-07T21:15:24.344Z,99888.81
2022-11-07T21:18:13.062Z,99903.84
2022-11-07T21:21:07.752Z,99896.28
2022-11-07T21:23:56.674Z,99881.31
2022-11-07T21:26:45.442Z,99889.31
2022-11-07T21:29:33.916Z,99889.72
2022-11-07T21:32:23.648Z,99887.53
2022-11-07T21:35:13.295Z,99890.56
2022-11-07T21:38:01.652Z,99884.19
2022-11-07T21:40:50.059Z,99879.53
2022-11-07T21:43:38.836Z,99872.34
2022-11-07T21:46:28.451Z,99870.28
2022-11-07T21:49:18.219Z,99869.06
2022-11-07T21:52:06.609Z,99868.78
2022-11-07T21:54:55.003Z,99863.72
2022-11-07T21:57:43.386Z,99862.91
2022-11-07T22:00:36.234Z,99859.34
2022-11-07T22:03:51.170Z,99852.22
2022-11-07T22:06:35.465Z,99857.13
2022-11-07T22:09:23.838Z,99847.50
2022-11-07T22:12:12.209Z,99843.88
2022-11-07T22:15:00.582Z,99839.69
2022-11-07T22:17:48.979Z,99839.88
2022-11-07T22:20:39.024Z,99831.72
2022-11-07T22:23:31.036Z,99830.41
2022-11-07T22:26:20.904Z,99836.91
2022-11-07T22:29:09.325Z,99833.84
2022-11-07T22:31:57.734Z,99829.00
2022-11-07T22:34:46.125Z,99828.28
2022-11-07T22:37:34.481Z,99832.59
2022-11-07T22:40:24.234Z,99831.72
2022-11-07T22:43:12.683Z,99828.06
2022-11-07T22:46:02.848Z,99817.09
2022-11-07T22:48:51.665Z,99817.28
2022-11-07T22:51:40.077Z,99818.41
2022-11-07T22:54:28.575Z,99819.41
2022-11-07T22:57:18.309Z,99807.22
2022-11-07T23:00:21.144Z,99806.25
2022-11-07T23:03:10.476Z,99801.06
2022-11-07T23:06:02.716Z,99812.94
2022-11-07T23:08:51.262Z,99807.31
2022-11-07T23:11:45.824Z,99805.19
2022-11-07T23:14:36.031Z,99815.84
2022-11-07T23:17:24.457Z,99817.16
2022-11-07T23:20:34.124Z,99811.47
2022-11-07T23:23:22.553Z,99825.69
2022-11-07T23:26:12.458Z,99814.94
2022-11-07T23:29:07.369Z,99811.75
2022-11-07T23:32:00.113Z,99819.13
2022-11-07T23:34:50.215Z,99815.16
2022-11-07T23:37:38.607Z,99811.13
2022-11-07T23:40:26.999Z,99813.94
2022-11-07T23:43:15.397Z,99811.50
2022-11-07T23:46:21.995Z,99801.53
2022-11-07T23:49:29.320Z,99812.84
2022-11-07T23:52:17.809Z,99811.34
2022-11-07T23:55:24.872Z,99813.16
2022-11-07T23:58:30.912Z,99811.53
